createdAt,value
2022-08-09T00:00:53.487Z,78.44
2022-08-09T00:02:52.645Z,78.84
2022-08-09T00:06:15.571Z,78.44
2022-08-09T00:06:52.172Z,78.34
2022-08-09T00:09:21.058Z,78.54
2022-08-09T00:14:49.014Z,78.78
2022-08-09T00:16:26.216Z,79.08
2022-08-09T00:18:06.020Z,79.08
2022-08-09T00:20:21.042Z,79.28
2022-08-09T00:21:56.775Z,78.98
2022-08-09T00:23:56.331Z,79.18
2022-08-09T00:30:25.521Z,79.38
2022-08-09T00:35:48.980Z,79.92
2022-08-09T00:37:48.173Z,80.22
2022-08-09T00:44:13.487Z,79.72
2022-08-09T00:44:15.772Z,80.22
2022-08-09T00:45:16.868Z,80.02
2022-08-09T00:48:56.361Z,80.22
2022-08-09T00:50:26.014Z,80.32
2022-08-09T00:51:56.279Z,80.29
2022-08-09T00:53:54.777Z,79.92
2022-08-09T00:56:03.163Z,79.92
2022-08-09T00:57:34.389Z,80.12
2022-08-09T00:59:40.543Z,79.82
2022-08-09T01:00:58.904Z,80.43
2022-08-09T01:02:26.929Z,80.02
2022-08-09T01:04:26.537Z,80.02
2022-08-09T01:05:56.081Z,80.02
2022-08-09T01:07:37.980Z,79.92
2022-08-09T01:10:55.928Z,80.26
2022-08-09T01:12:55.863Z,80.26
2022-08-09T01:14:26.085Z,80.36
2022-08-09T01:15:55.630Z,80.16
2022-08-09T01:18:30.599Z,80.57
2022-08-09T01:20:02.138Z,80.57
2022-08-09T01:21:56.987Z,80.66
2022-08-09T01:25:25.265Z,80.36
2022-08-09T01:26:55.365Z,80.66
2022-08-09T01:28:26.170Z,80.57
2022-08-09T01:30:55.017Z,80.57
2022-08-09T01:33:24.973Z,80.26
2022-08-09T01:35:37.541Z,80.16
2022-08-09T01:38:24.540Z,80.36
2022-08-09T01:40:28.363Z,80.36
2022-08-09T01:42:00.560Z,80.77
2022-08-09T01:43:55.147Z,80.40
2022-08-09T01:45:24.791Z,80.06
2022-08-09T01:46:54.877Z,80.36
2022-08-09T01:48:29.765Z,79.60
2022-08-09T01:50:55.039Z,80.46
2022-08-09T01:52:24.475Z,80.26
2022-08-09T01:54:54.306Z,80.26
2022-08-09T01:56:24.465Z,80.16
2022-08-09T01:58:54.652Z,79.96
2022-08-09T02:00:34.876Z,80.26
2022-08-09T02:02:00.358Z,80.26
2022-08-09T02:08:40.229Z,80.40
2022-08-09T02:09:59.159Z,80.60
2022-08-09T02:12:25.158Z,80.40
2022-08-09T02:13:55.230Z,80.30
2022-08-09T02:15:54.970Z,80.40
2022-08-09T02:18:00.684Z,80.60
2022-08-09T02:19:24.991Z,80.70
2022-08-09T02:20:56.032Z,81.04
2022-08-09T02:22:56.328Z,81.15
2022-08-09T02:24:56.033Z,81.15
2022-08-09T02:26:26.916Z,81.35
2022-08-09T02:29:55.570Z,81.04
2022-08-09T02:33:37.877Z,81.65
2022-08-09T02:36:02.765Z,80.74
2022-08-09T02:37:31.784Z,81.35
2022-08-09T02:38:56.363Z,81.24
2022-08-09T02:40:55.551Z,81.85
2022-08-09T02:42:25.607Z,81.55
2022-08-09T02:43:55.607Z,81.75
2022-08-09T02:45:54.365Z,81.15
2022-08-09T02:48:31.174Z,81.28
2022-08-09T02:50:24.361Z,81.18
2022-08-09T02:52:22.685Z,81.28
2022-08-09T02:53:52.997Z,81.28
2022-08-09T03:05:49.273Z,81.59
2022-08-09T03:07:19.768Z,81.79
2022-08-09T03:08:49.521Z,81.73
2022-08-09T03:10:19.114Z,82.03
2022-08-09T03:12:10.562Z,82.13
2022-08-09T03:13:19.257Z,82.03
2022-08-09T03:16:06.729Z,82.13
2022-08-09T03:17:26.367Z,81.93
2022-08-09T03:19:52.281Z,82.23
2022-08-09T03:20:50.110Z,82.43
2022-08-09T03:22:56.978Z,82.03
2022-08-09T03:24:31.675Z,82.07
2022-08-09T03:25:57.946Z,82.17
2022-08-09T03:27:52.150Z,81.96
2022-08-09T03:29:22.681Z,81.96
2022-08-09T03:30:51.404Z,82.37
2022-08-09T03:32:51.121Z,82.07
2022-08-09T03:34:20.703Z,82.47
2022-08-09T03:36:12.760Z,82.57
2022-08-09T03:37:54.757Z,82.81
2022-08-09T03:38:51.468Z,82.71
2022-08-09T03:40:51.639Z,82.51
2022-08-09T03:42:21.507Z,82.71
2022-08-09T03:44:08.320Z,82.51
2022-08-09T03:46:02.965Z,82.71
2022-08-09T03:47:23.976Z,83.01
2022-08-09T03:48:53.561Z,82.61
2022-08-09T03:52:54.762Z,82.61
2022-08-09T03:54:54.073Z,82.71
2022-08-09T03:56:53.342Z,82.71
2022-08-09T03:58:22.748Z,82.85
2022-08-09T04:00:22.953Z,82.95
2022-08-09T04:01:52.506Z,82.95
2022-08-09T04:04:01.240Z,82.75
2022-08-09T04:06:52.403Z,82.41
2022-08-09T04:09:53.728Z,82.55
2022-08-09T04:11:21.585Z,82.75
2022-08-09T04:14:53.659Z,82.95
2022-08-09T04:16:20.134Z,82.75
2022-08-09T04:17:21.384Z,83.15
2022-08-09T04:22:19.696Z,83.36
2022-08-09T04:23:53.634Z,82.95
2022-08-09T04:25:52.194Z,82.85
2022-08-09T04:29:18.210Z,82.85
2022-08-09T04:31:17.907Z,83.15
2022-08-09T04:33:47.248Z,83.56
2022-08-09T04:35:17.892Z,84.06
2022-08-09T04:37:17.029Z,83.46
2022-08-09T04:38:47.115Z,83.66
2022-08-09T04:40:46.910Z,83.46
2022-08-09T04:44:49.074Z,83.05
2022-08-09T04:46:36.435Z,83.46
2022-08-09T04:48:57.503Z,83.56
2022-08-09T04:53:49.182Z,83.66
2022-08-09T04:56:17.163Z,83.66
2022-08-09T04:57:58.401Z,83.26
2022-08-09T04:59:21.062Z,83.46
2022-08-09T05:00:49.213Z,83.05
2022-08-09T05:03:41.108Z,83.46
2022-08-09T05:04:52.446Z,83.56
2022-08-09T05:07:20.569Z,83.66
2022-08-09T05:09:19.829Z,83.66
2022-08-09T05:10:50.309Z,83.36
2022-08-09T05:12:32.808Z,83.92
2022-08-09T05:13:51.153Z,84.43
2022-08-09T05:16:21.419Z,83.92
2022-08-09T05:19:24.424Z,83.92
2022-08-09T05:20:51.315Z,83.72
2022-08-09T05:22:33.392Z,84.23
2022-08-09T05:27:49.947Z,83.22
2022-08-09T05:29:49.748Z,82.81
2022-08-09T05:31:19.263Z,83.22
2022-08-09T05:32:53.158Z,83.28
2022-08-09T05:34:49.543Z,83.28
2022-08-09T05:36:19.273Z,83.88
2022-08-09T05:38:22.012Z,83.48
2022-08-09T05:39:49.112Z,82.78
2022-08-09T05:41:19.354Z,83.38
2022-08-09T05:42:49.077Z,84.39
2022-08-09T05:44:22.120Z,84.09
2022-08-09T05:54:46.220Z,82.79
2022-08-09T05:56:16.264Z,82.59
2022-08-09T05:57:51.280Z,83.60
2022-08-09T05:59:46.848Z,83.60
2022-08-09T06:01:17.167Z,84.47
2022-08-09T06:02:47.023Z,83.97
2022-08-09T06:05:54.815Z,81.65
2022-08-09T06:08:04.943Z,81.24
2022-08-09T06:09:23.060Z,80.40
2022-08-09T06:11:17.929Z,81.10
2022-08-09T06:13:20.707Z,80.46
2022-08-09T06:15:17.726Z,80.66
2022-08-09T06:16:52.170Z,80.52
2022-08-09T06:19:48.035Z,80.08
2022-08-09T06:21:17.657Z,80.08
2022-08-09T06:23:17.421Z,78.74
2022-08-09T06:25:16.533Z,76.83
2022-08-09T06:27:16.730Z,77.83
2022-08-09T06:35:57.005Z,76.45
2022-08-09T06:46:07.168Z,73.03
2022-08-09T06:47:43.057Z,73.24
2022-08-09T06:49:12.689Z,73.84
2022-08-09T06:51:42.000Z,72.90
2022-08-09T06:53:11.833Z,70.79
2022-08-09T06:55:12.849Z,70.86
2022-08-09T07:00:46.356Z,70.16
2022-08-09T07:02:09.549Z,71.23
2022-08-09T07:04:38.446Z,68.99
2022-08-09T07:06:37.611Z,68.89
2022-08-09T07:10:22.485Z,68.46
2022-08-09T07:11:45.499Z,69.93
2022-08-09T07:13:27.185Z,68.62
2022-08-09T07:16:35.131Z,67.22
2022-08-09T07:17:09.538Z,67.89
2022-08-09T07:18:39.122Z,66.69
2022-08-09T07:20:39.581Z,67.59
2022-08-09T07:22:08.695Z,66.89
2022-08-09T07:24:07.880Z,68.06
2022-08-09T07:26:36.832Z,67.33
2022-08-09T07:28:06.421Z,66.93
2022-08-09T07:29:38.057Z,66.53
2022-08-09T07:31:38.248Z,65.40
2022-08-09T07:33:10.129Z,63.90
2022-08-09T07:37:06.322Z,64.17
2022-08-09T07:42:05.414Z,64.34
2022-08-09T07:44:52.494Z,63.81
2022-08-09T07:46:05.280Z,63.81
2022-08-09T07:48:05.320Z,62.78
2022-08-09T07:49:34.777Z,61.79
2022-08-09T07:52:03.401Z,61.88
2022-08-09T07:52:37.129Z,62.45
2022-08-09T07:54:08.718Z,62.75
2022-08-09T07:55:41.707Z,61.76
2022-08-09T07:58:13.255Z,60.93
2022-08-09T08:00:38.111Z,62.13
2022-08-09T08:04:10.631Z,59.81
2022-08-09T08:05:53.968Z,59.38
2022-08-09T08:09:34.376Z,59.78
2022-08-09T08:12:34.353Z,59.65
2022-08-09T08:21:10.259Z,56.29
2022-08-09T08:22:39.996Z,56.06
2022-08-09T08:24:40.657Z,57.25
2022-08-09T08:26:11.572Z,55.57
2022-08-09T08:30:06.970Z,54.42
2022-08-09T08:31:56.585Z,54.49
2022-08-09T08:33:49.708Z,53.45
2022-08-09T08:35:08.462Z,52.91
2022-08-09T08:36:40.118Z,51.54
2022-08-09T08:38:11.530Z,48.51
2022-08-09T08:39:39.736Z,47.58
2022-08-09T08:42:09.351Z,46.01
2022-08-09T08:47:03.320Z,42.84
2022-08-09T08:48:51.152Z,43.09
2022-08-09T08:53:00.725Z,39.86
2022-08-09T08:54:58.979Z,39.31
2022-08-09T08:56:58.472Z,37.85
2022-08-09T08:59:20.072Z,37.04
2022-08-09T09:03:38.461Z,36.80
2022-08-09T09:06:07.935Z,35.99
2022-08-09T09:08:40.213Z,36.44
2022-08-09T09:10:08.996Z,34.77
2022-08-09T09:11:38.549Z,33.39
2022-08-09T09:14:37.260Z,34.43
2022-08-09T09:16:07.064Z,33.54
2022-08-09T09:17:49.098Z,33.34
2022-08-09T09:20:06.522Z,33.83
2022-08-09T09:22:35.692Z,32.84
2022-08-09T09:24:10.401Z,32.44
2022-08-09T09:26:37.455Z,31.47
2022-08-09T09:28:10.934Z,30.91
2022-08-09T09:30:13.935Z,31.76
2022-08-09T09:32:05.867Z,32.04
2022-08-09T09:33:17.098Z,30.47
2022-08-09T09:35:09.816Z,30.85
2022-08-09T09:36:39.473Z,32.09
2022-08-09T09:38:40.174Z,32.09
2022-08-09T09:40:09.806Z,30.05
2022-08-09T09:41:49.089Z,30.72
2022-08-09T09:43:41.253Z,29.66
2022-08-09T09:47:08.859Z,29.93
2022-08-09T09:50:07.536Z,30.21
2022-08-09T09:51:11.555Z,29.71
2022-08-09T09:53:10.671Z,28.76
2022-08-09T09:54:39.248Z,28.37
2022-08-09T09:56:08.830Z,27.97
2022-08-09T09:58:03.460Z,27.78
2022-08-09T10:00:39.847Z,27.71
2022-08-09T10:02:39.265Z,28.09
2022-08-09T10:05:08.713Z,28.76
2022-08-09T10:06:38.296Z,28.40
2022-08-09T10:08:43.339Z,28.89
2022-08-09T10:10:08.799Z,27.62
2022-08-09T10:11:59.193Z,29.36
2022-08-09T10:13:10.101Z,27.81
2022-08-09T10:18:36.004Z,27.11
2022-08-09T10:20:44.544Z,28.07
2022-08-09T10:23:05.237Z,27.00
2022-08-09T10:24:36.069Z,26.61
2022-08-09T10:26:34.173Z,28.74
2022-08-09T10:28:03.764Z,27.59
2022-08-09T10:32:42.804Z,27.01
2022-08-09T10:35:33.099Z,26.62
2022-08-09T10:38:54.995Z,27.42
2022-08-09T10:41:01.321Z,28.12
2022-08-09T10:44:02.215Z,29.56
2022-08-09T10:46:00.270Z,28.09
2022-08-09T10:50:31.214Z,28.03
2022-08-09T10:51:58.408Z,28.41
2022-08-09T10:58:00.232Z,28.29
2022-08-09T11:03:11.917Z,28.80
2022-08-09T11:03:27.491Z,29.38
2022-08-09T11:07:24.482Z,27.98
2022-08-09T11:10:22.873Z,27.61
2022-08-09T11:11:53.634Z,27.42
2022-08-09T11:13:50.338Z,28.19
2022-08-09T11:16:53.449Z,27.42
2022-08-09T11:19:22.283Z,27.82
2022-08-09T11:20:52.855Z,28.40
2022-08-09T11:22:57.217Z,28.48
2022-08-09T11:30:04.373Z,27.09
2022-08-09T11:32:50.640Z,27.29
2022-08-09T11:35:22.716Z,27.23
2022-08-09T11:40:49.151Z,29.30
2022-08-09T11:42:19.267Z,27.75
2022-08-09T11:43:49.158Z,29.57
2022-08-09T11:45:48.785Z,28.11
2022-08-09T11:48:47.452Z,27.82
2022-08-09T11:50:55.020Z,28.70
2022-08-09T11:53:03.224Z,30.25
2022-08-09T11:54:28.946Z,28.03
2022-08-09T11:57:17.169Z,27.04
2022-08-09T11:59:17.927Z,29.17
2022-08-09T12:00:47.518Z,28.39
2022-08-09T12:02:36.868Z,28.28
2022-08-09T12:03:56.091Z,27.51
2022-08-09T12:05:23.057Z,27.62
2022-08-09T12:07:18.628Z,27.64
2022-08-09T12:09:20.941Z,29.19
2022-08-09T12:12:02.966Z,28.02
2022-08-09T12:15:50.517Z,27.61
2022-08-09T12:17:24.790Z,27.31
2022-08-09T12:19:17.212Z,28.47
2022-08-09T12:21:50.385Z,26.65
2022-08-09T12:23:17.469Z,27.13
2022-08-09T12:26:25.896Z,27.14
2022-08-09T12:29:11.580Z,27.13
2022-08-09T12:30:46.260Z,27.80
2022-08-09T12:32:45.429Z,26.53
2022-08-09T12:38:42.130Z,25.76
2022-08-09T12:40:41.517Z,25.57
2022-08-09T12:45:38.962Z,25.55
2022-08-09T12:58:01.096Z,24.24
2022-08-09T12:59:57.888Z,24.24
2022-08-09T13:02:01.189Z,24.52
2022-08-09T13:05:35.538Z,23.97
2022-08-09T13:07:01.093Z,25.62
2022-08-09T13:11:28.417Z,25.84
2022-08-09T13:13:27.609Z,25.55
2022-08-09T13:14:58.291Z,26.04
2022-08-09T13:16:27.890Z,24.99
2022-08-09T13:18:05.484Z,25.86
2022-08-09T13:20:09.799Z,24.98
2022-08-09T13:22:35.772Z,24.51
2022-08-09T13:30:49.078Z,25.09
2022-08-09T13:32:19.309Z,25.85
2022-08-09T13:34:05.075Z,26.12
2022-08-09T13:36:24.354Z,24.67
2022-08-09T13:38:04.544Z,24.96
2022-08-09T13:47:13.674Z,25.26
2022-08-09T13:51:31.199Z,23.80
2022-08-09T13:55:04.339Z,24.38
2022-08-09T14:09:47.425Z,30.93
2022-08-09T14:11:18.547Z,31.02
2022-08-09T14:13:21.910Z,32.42
2022-08-09T14:14:53.808Z,32.45
2022-08-09T14:18:16.778Z,32.55
2022-08-09T14:19:20.541Z,32.17
2022-08-09T14:21:20.547Z,32.89
2022-08-09T14:31:52.031Z,34.69
2022-08-09T14:33:20.627Z,34.39
2022-08-09T14:35:52.660Z,36.08
2022-08-09T14:38:02.576Z,35.97
2022-08-09T14:39:18.230Z,37.65
2022-08-09T14:41:04.382Z,35.47
2022-08-09T14:42:48.352Z,35.86
2022-08-09T14:44:17.824Z,35.29
2022-08-09T14:47:03.906Z,35.02
2022-08-09T14:48:19.211Z,35.82
2022-08-09T14:50:18.872Z,35.52
2022-08-09T14:51:48.602Z,36.13
2022-08-09T14:55:20.366Z,36.91
2022-08-09T15:00:48.182Z,36.83
2022-08-09T15:14:38.741Z,38.07
2022-08-09T15:18:05.058Z,36.49
2022-08-09T15:24:00.955Z,37.18
2022-08-09T15:25:38.990Z,37.57
2022-08-09T15:27:54.802Z,38.26
2022-08-09T15:30:58.761Z,37.67
2022-08-09T15:31:41.233Z,38.95
2022-08-09T15:33:07.706Z,40.62
2022-08-09T15:41:09.631Z,39.34
2022-08-09T15:43:37.023Z,38.48
2022-08-09T15:52:03.943Z,38.85
2022-08-09T16:10:02.204Z,39.01
2022-08-09T16:19:00.964Z,38.95
2022-08-09T16:21:31.435Z,39.34
2022-08-09T16:23:01.169Z,40.61
2022-08-09T16:26:02.543Z,39.54
2022-08-09T16:28:58.790Z,38.95
2022-08-09T16:30:29.885Z,40.43
2022-08-09T16:32:57.922Z,40.62
2022-08-09T16:37:59.418Z,43.90
2022-08-09T16:40:39.990Z,47.89
2022-08-09T16:47:01.814Z,55.21
2022-08-09T16:50:33.808Z,50.21
2022-08-09T16:55:01.839Z,47.34
2022-08-09T16:59:06.478Z,49.71
2022-08-09T17:03:32.037Z,49.32
2022-08-09T17:06:33.471Z,48.92
2022-08-09T17:08:43.876Z,45.56
2022-08-09T17:11:04.275Z,49.81
2022-08-09T17:22:03.047Z,49.12
2022-08-09T17:27:34.995Z,49.34
2022-08-09T17:29:37.949Z,50.34
2022-08-09T17:31:39.045Z,46.47
2022-08-09T17:35:04.401Z,45.97
2022-08-09T17:36:05.669Z,47.75
2022-08-09T17:39:52.896Z,49.07
2022-08-09T17:41:04.824Z,50.56
2022-08-09T17:46:34.096Z,49.66
2022-08-09T17:50:14.160Z,45.92
2022-08-09T17:53:02.029Z,47.01
2022-08-09T17:58:28.706Z,45.74
2022-08-09T18:04:54.730Z,46.93
2022-08-09T18:08:27.489Z,47.53
2022-08-09T18:10:23.868Z,46.86
2022-08-09T18:12:23.067Z,48.74
2022-08-09T18:14:03.523Z,49.84
2022-08-09T18:16:29.054Z,48.35
2022-08-09T18:18:25.593Z,49.46
2022-08-09T18:20:54.934Z,50.35
2022-08-09T18:24:10.554Z,49.56
2022-08-09T18:28:03.595Z,50.48
2022-08-09T18:32:54.409Z,51.57
2022-08-09T18:34:24.455Z,50.20
2022-08-09T18:46:46.543Z,51.12
2022-08-09T18:51:55.402Z,51.05
2022-08-09T18:53:22.056Z,51.84
2022-08-09T18:56:27.106Z,51.45
2022-08-09T19:07:16.309Z,51.59
2022-08-09T19:10:13.727Z,50.90
2022-08-09T19:11:15.382Z,51.50
2022-08-09T19:14:44.798Z,51.70
2022-08-09T19:16:50.230Z,51.89
2022-08-09T19:18:45.682Z,52.62
2022-08-09T19:20:43.409Z,52.32
2022-08-09T19:24:33.610Z,52.51
2022-08-09T19:26:02.291Z,52.92
2022-08-09T19:27:13.245Z,52.22
2022-08-09T19:30:23.254Z,53.14
2022-08-09T19:31:44.899Z,53.54
2022-08-09T19:53:45.493Z,54.39
2022-08-09T19:56:02.914Z,54.79
2022-08-09T19:59:40.490Z,55.19
2022-08-09T20:01:08.654Z,55.09
2022-08-09T20:22:35.793Z,55.14
2022-08-09T20:38:33.919Z,56.04
2022-08-09T20:40:55.684Z,56.14
2022-08-09T20:43:58.499Z,55.66
2022-08-09T20:55:24.248Z,56.96
2022-08-09T21:09:56.756Z,57.89
2022-08-09T21:26:04.686Z,57.22
2022-08-09T21:48:00.511Z,58.95
2022-08-09T21:49:52.197Z,58.75
2022-08-09T21:51:52.494Z,59.45
2022-08-09T21:53:40.233Z,59.25
2022-08-09T21:56:34.017Z,59.45
2022-08-09T21:57:59.846Z,58.05
2022-08-09T22:06:17.814Z,58.95
2022-08-09T22:14:14.997Z,59.25
2022-08-09T22:21:21.942Z,58.78
2022-08-09T22:26:08.562Z,61.18
2022-08-09T22:31:36.679Z,60.48
2022-08-09T22:33:09.275Z,60.61
2022-08-09T22:36:05.195Z,60.41
2022-08-09T22:39:04.276Z,61.81
2022-08-09T22:42:03.187Z,60.61
2022-08-09T22:58:32.349Z,62.14
2022-08-09T23:01:55.791Z,62.34
2022-08-09T23:12:50.238Z,63.75
2022-08-09T23:28:11.864Z,64.64
2022-08-09T23:29:10.665Z,65.24
2022-08-09T23:32:10.677Z,65.14
2022-08-09T23:34:10.250Z,65.94
2022-08-09T23:37:08.354Z,65.37
2022-08-09T23:38:48.840Z,65.88
2022-08-09T23:40:08.683Z,65.97
2022-08-09T23:44:35.795Z,65.47
2022-08-09T23:47:05.650Z,67.48
2022-08-09T23:49:34.886Z,67.78
2022-08-09T23:51:04.584Z,66.58
2022-08-09T23:53:38.427Z,66.28
2022-08-09T23:55:03.871Z,66.41
